createdAt,value
2022-12-29T00:02:22.826Z,8.00
2022-12-29T00:04:51.691Z,8.00
2022-12-29T00:07:19.422Z,8.00
2022-12-29T00:09:46.158Z,8.00
2022-12-29T00:12:12.934Z,8.10
2022-12-29T00:14:58.034Z,8.10
2022-12-29T00:17:24.849Z,8.10
2022-12-29T00:20:10.007Z,8.10
2022-12-29T00:22:55.505Z,8.10
2022-12-29T00:25:40.991Z,8.20
2022-12-29T00:28:28.476Z,8.20
2022-12-29T00:31:18.146Z,8.20
2022-12-29T00:34:03.464Z,8.20
2022-12-29T00:36:37.771Z,8.20
2022-12-29T00:39:28.270Z,8.30
2022-12-29T00:42:13.614Z,8.30
2022-12-29T00:44:40.349Z,8.30
2022-12-29T00:47:07.262Z,8.30
2022-12-29T00:49:34.326Z,8.30
2022-12-29T00:52:12.684Z,8.30
2022-12-29T00:54:40.960Z,8.40
2022-12-29T00:57:10.455Z,8.40
2022-12-29T00:59:41.538Z,8.40
2022-12-29T01:02:09.115Z,8.40
2022-12-29T01:04:36.521Z,8.40
2022-12-29T01:07:03.225Z,8.40
2022-12-29T01:09:48.630Z,8.40
2022-12-29T01:12:15.397Z,8.40
2022-12-29T01:14:44.934Z,8.40
2022-12-29T01:17:11.651Z,8.40
2022-12-29T01:19:38.456Z,8.40
2022-12-29T01:22:05.207Z,8.40
2022-12-29T01:24:32.079Z,8.40
2022-12-29T01:26:58.837Z,8.50
2022-12-29T01:29:25.698Z,8.50
2022-12-29T01:31:52.450Z,8.50
2022-12-29T01:34:19.378Z,8.50
2022-12-29T01:36:46.356Z,8.50
2022-12-29T01:39:13.246Z,8.50
2022-12-29T01:41:41.290Z,8.50
2022-12-29T01:44:45.279Z,8.50
2022-12-29T01:47:12.127Z,8.60
2022-12-29T01:49:39.486Z,8.60
2022-12-29T01:52:09.024Z,8.60
2022-12-29T01:54:42.691Z,8.60
2022-12-29T01:57:15.589Z,8.60
2022-12-29T01:59:53.107Z,8.70
2022-12-29T02:02:19.970Z,8.60
2022-12-29T02:04:46.986Z,8.70
2022-12-29T02:07:20.398Z,8.70
2022-12-29T02:09:51.761Z,8.70
2022-12-29T02:12:20.273Z,8.70
2022-12-29T02:14:50.921Z,8.70
2022-12-29T02:17:35.360Z,8.80
2022-12-29T02:20:29.430Z,8.80
2022-12-29T02:23:20.228Z,8.80
2022-12-29T02:26:17.157Z,8.80
2022-12-29T02:29:14.358Z,8.80
2022-12-29T02:31:51.785Z,8.90
2022-12-29T02:34:36.749Z,8.90
2022-12-29T02:37:22.987Z,8.90
2022-12-29T02:40:28.843Z,8.90
2022-12-29T02:43:16.432Z,8.90
2022-12-29T02:46:01.312Z,8.90
2022-12-29T02:48:45.084Z,9.00
2022-12-29T02:51:27.555Z,9.00
2022-12-29T02:54:14.740Z,9.00
2022-12-29T02:56:41.747Z,9.00
2022-12-29T02:59:09.334Z,9.10
2022-12-29T03:02:20.228Z,9.10
2022-12-29T03:05:14.639Z,9.20
2022-12-29T03:07:49.573Z,9.10
2022-12-29T03:10:36.308Z,9.20
2022-12-29T03:13:34.132Z,9.20
2022-12-29T03:16:27.392Z,9.20
2022-12-29T03:19:09.409Z,9.30
2022-12-29T03:22:11.575Z,9.30
2022-12-29T03:24:42.668Z,9.30
2022-12-29T03:27:13.271Z,9.30
2022-12-29T03:29:54.206Z,9.30
2022-12-29T03:32:24.886Z,9.30
2022-12-29T03:34:52.159Z,9.40
2022-12-29T03:37:24.740Z,9.30
2022-12-29T03:39:51.435Z,9.30
2022-12-29T03:42:22.344Z,9.30
2022-12-29T03:44:49.116Z,9.30
2022-12-29T03:47:16.532Z,9.30
2022-12-29T03:49:43.996Z,9.30
2022-12-29T03:52:10.771Z,9.30
2022-12-29T03:54:37.554Z,9.30
2022-12-29T03:57:04.273Z,9.30
2022-12-29T03:59:31.062Z,9.30
2022-12-29T04:01:57.953Z,9.30
2022-12-29T04:04:24.857Z,9.30
2022-12-29T04:06:51.587Z,9.30
2022-12-29T04:09:18.340Z,9.30
2022-12-29T04:11:45.122Z,9.30
2022-12-29T04:14:11.894Z,9.30
2022-12-29T04:16:39.870Z,9.30
2022-12-29T04:19:08.414Z,9.30
2022-12-29T04:21:35.385Z,9.30
2022-12-29T04:24:02.352Z,9.30
2022-12-29T04:26:29.131Z,9.30
2022-12-29T04:28:55.855Z,9.30
2022-12-29T04:31:22.599Z,9.30
2022-12-29T04:33:49.410Z,9.30
2022-12-29T04:36:16.175Z,9.30
2022-12-29T04:38:45.440Z,9.30
2022-12-29T04:41:12.207Z,9.30
2022-12-29T04:43:38.964Z,9.30
2022-12-29T04:46:06.088Z,9.30
2022-12-29T04:48:32.882Z,9.30
2022-12-29T04:50:59.638Z,9.30
2022-12-29T04:53:26.422Z,9.20
2022-12-29T04:55:53.918Z,9.20
2022-12-29T04:58:23.143Z,9.30
2022-12-29T05:00:51.805Z,9.30
2022-12-29T05:03:19.446Z,9.20
2022-12-29T05:05:46.323Z,9.20
2022-12-29T05:08:13.110Z,9.20
2022-12-29T05:10:40.466Z,9.20
2022-12-29T05:13:07.199Z,9.10
2022-12-29T05:15:34.254Z,9.10
2022-12-29T05:18:01.092Z,9.10
2022-12-29T05:20:27.843Z,9.10
2022-12-29T05:22:54.608Z,9.10
2022-12-29T05:25:21.366Z,9.10
2022-12-29T05:27:48.027Z,9.10
2022-12-29T05:30:14.834Z,9.00
2022-12-29T05:32:41.592Z,9.00
2022-12-29T05:35:08.852Z,8.90
2022-12-29T05:37:35.628Z,8.90
2022-12-29T05:40:02.303Z,8.80
2022-12-29T05:42:29.043Z,8.80
2022-12-29T05:44:56.071Z,8.70
2022-12-29T05:47:22.872Z,8.70
2022-12-29T05:49:49.690Z,8.60
2022-12-29T05:52:16.444Z,8.60
2022-12-29T05:54:44.080Z,8.60
2022-12-29T05:57:10.977Z,8.60
2022-12-29T05:59:37.667Z,8.60
2022-12-29T06:02:04.557Z,8.50
2022-12-29T06:04:31.363Z,8.50
2022-12-29T06:06:58.044Z,8.50
2022-12-29T06:09:24.751Z,8.50
2022-12-29T06:11:51.587Z,8.50
2022-12-29T06:14:18.393Z,8.50
2022-12-29T06:16:45.166Z,8.50
2022-12-29T06:19:11.979Z,8.50
2022-12-29T06:21:39.001Z,8.50
2022-12-29T06:24:06.397Z,8.50
2022-12-29T06:26:33.093Z,8.60
2022-12-29T06:29:00.123Z,8.60
2022-12-29T06:31:26.887Z,8.60
2022-12-29T06:33:53.708Z,8.60
2022-12-29T06:36:20.483Z,8.60
2022-12-29T06:38:47.547Z,8.60
2022-12-29T06:41:14.272Z,8.60
2022-12-29T06:43:41.100Z,8.60
2022-12-29T06:46:08.046Z,8.60
2022-12-29T06:48:34.798Z,8.60
2022-12-29T06:51:01.792Z,8.60
2022-12-29T06:53:28.869Z,8.70
2022-12-29T06:55:57.505Z,8.70
2022-12-29T06:58:24.699Z,8.80
2022-12-29T07:00:51.501Z,8.80
2022-12-29T07:03:18.456Z,8.80
2022-12-29T07:05:45.338Z,8.80
2022-12-29T07:08:12.074Z,8.90
2022-12-29T07:10:38.864Z,8.90
2022-12-29T07:13:05.655Z,8.90
2022-12-29T07:15:32.372Z,9.00
2022-12-29T07:17:59.074Z,9.00
2022-12-29T07:20:27.171Z,9.00
2022-12-29T07:22:54.425Z,9.00
2022-12-29T07:25:21.282Z,9.10
2022-12-29T07:27:48.391Z,9.10
2022-12-29T07:30:15.348Z,9.10
2022-12-29T07:32:42.333Z,9.10
2022-12-29T07:35:09.557Z,9.10
2022-12-29T07:37:36.426Z,9.10
2022-12-29T07:40:04.366Z,9.20
2022-12-29T07:42:32.272Z,9.20
2022-12-29T07:44:58.945Z,9.20
2022-12-29T07:47:26.283Z,9.30
2022-12-29T07:49:53.042Z,9.30
2022-12-29T07:52:20.975Z,9.40
2022-12-29T07:54:47.753Z,9.40
2022-12-29T07:57:14.509Z,9.40
2022-12-29T07:59:41.307Z,9.40
2022-12-29T08:02:11.976Z,9.40
2022-12-29T08:04:39.333Z,9.40
2022-12-29T08:07:06.251Z,9.40
2022-12-29T08:09:33.058Z,9.40
2022-12-29T08:11:59.817Z,9.50
2022-12-29T08:14:26.614Z,9.50
2022-12-29T08:16:53.340Z,9.50
2022-12-29T08:19:20.105Z,9.50
2022-12-29T08:21:47.101Z,9.50
2022-12-29T08:24:13.915Z,9.50
2022-12-29T08:26:40.601Z,9.50
2022-12-29T08:29:07.382Z,9.60
2022-12-29T08:31:34.229Z,9.60
2022-12-29T08:34:01.124Z,9.60
2022-12-29T08:36:27.907Z,9.60
2022-12-29T08:38:54.584Z,9.60
2022-12-29T08:41:21.364Z,9.60
2022-12-29T08:43:49.026Z,9.60
2022-12-29T08:46:16.705Z,9.70
2022-12-29T08:48:43.793Z,9.70
2022-12-29T08:51:10.545Z,9.70
2022-12-29T08:53:37.313Z,9.70
2022-12-29T08:56:05.732Z,9.70
2022-12-29T08:58:32.941Z,9.70
2022-12-29T09:01:00.424Z,9.80
2022-12-29T09:06:17.991Z,9.80
2022-12-29T09:08:45.428Z,9.80
2022-12-29T09:11:16.113Z,9.90
2022-12-29T09:13:42.853Z,9.90
2022-12-29T09:16:10.066Z,9.90
2022-12-29T09:18:37.417Z,9.90
2022-12-29T09:21:06.543Z,9.90
2022-12-29T09:23:34.653Z,9.90
2022-12-29T09:26:01.627Z,9.90
2022-12-29T09:28:29.984Z,9.90
2022-12-29T09:30:57.812Z,9.90
2022-12-29T09:33:25.226Z,9.90
2022-12-29T09:35:57.961Z,10.00
2022-12-29T09:38:26.446Z,9.90
2022-12-29T09:41:20.745Z,10.00
2022-12-29T09:44:00.227Z,10.00
2022-12-29T09:46:36.983Z,10.00
2022-12-29T09:49:27.528Z,10.00
2022-12-29T09:52:07.247Z,10.00
2022-12-29T09:55:06.525Z,10.00
2022-12-29T09:57:43.071Z,10.00
2022-12-29T10:00:14.952Z,10.10
2022-12-29T10:02:45.319Z,10.10
2022-12-29T10:05:20.898Z,10.10
2022-12-29T10:08:15.670Z,10.10
2022-12-29T10:11:30.989Z,10.10
2022-12-29T10:14:22.869Z,10.20
2022-12-29T10:17:11.285Z,10.20
2022-12-29T10:19:49.931Z,10.20
2022-12-29T10:22:22.651Z,10.20
2022-12-29T10:24:52.071Z,10.20
2022-12-29T10:27:19.875Z,10.30
2022-12-29T10:29:54.163Z,10.30
2022-12-29T10:32:35.751Z,10.30
2022-12-29T10:35:17.849Z,10.30
2022-12-29T10:37:57.517Z,10.30
2022-12-29T10:40:33.836Z,10.30
2022-12-29T10:43:03.063Z,10.30
2022-12-29T10:45:32.410Z,10.30
2022-12-29T10:48:07.285Z,10.30
2022-12-29T10:50:34.690Z,10.20
2022-12-29T10:53:05.847Z,10.30
2022-12-29T10:55:37.249Z,10.30
2022-12-29T10:58:07.849Z,10.40
2022-12-29T11:00:35.338Z,10.50
2022-12-29T11:03:07.973Z,10.50
2022-12-29T11:05:56.476Z,10.50
2022-12-29T11:08:28.888Z,10.50
2022-12-29T11:11:01.203Z,10.50
2022-12-29T11:13:38.508Z,10.50
2022-12-29T11:16:06.299Z,10.50
2022-12-29T11:18:38.276Z,10.50
2022-12-29T11:21:07.575Z,10.50
2022-12-29T11:23:40.343Z,10.60
2022-12-29T11:26:24.575Z,10.60
2022-12-29T11:29:18.204Z,10.60
2022-12-29T11:31:49.287Z,10.70
2022-12-29T11:34:26.050Z,10.70
2022-12-29T11:37:00.014Z,10.80
2022-12-29T11:39:50.813Z,10.80
2022-12-29T11:42:31.009Z,10.90
2022-12-29T11:44:57.818Z,10.80
2022-12-29T11:47:33.600Z,10.80
2022-12-29T11:50:05.259Z,10.80
2022-12-29T11:52:40.428Z,10.80
2022-12-29T11:55:19.494Z,10.90
2022-12-29T11:57:46.661Z,11.00
2022-12-29T12:00:22.160Z,11.10
2022-12-29T12:03:04.394Z,11.20
2022-12-29T12:05:47.483Z,11.20
2022-12-29T12:08:30.781Z,11.30
2022-12-29T12:11:19.553Z,11.40
2022-12-29T12:13:55.331Z,11.40
2022-12-29T12:16:47.952Z,11.40
2022-12-29T12:19:33.628Z,11.50
2022-12-29T12:22:20.352Z,11.50
2022-12-29T12:24:55.377Z,11.40
2022-12-29T12:27:42.615Z,11.40
2022-12-29T12:30:20.321Z,11.40
2022-12-29T12:33:37.769Z,11.40
2022-12-29T12:36:25.632Z,11.30
2022-12-29T12:39:11.695Z,11.30
2022-12-29T12:41:57.656Z,11.30
2022-12-29T12:44:29.248Z,11.30
2022-12-29T12:47:14.730Z,11.40
2022-12-29T12:49:59.650Z,11.40
2022-12-29T12:52:58.689Z,11.30
2022-12-29T12:55:52.708Z,11.40
2022-12-29T12:58:34.842Z,11.40
2022-12-29T13:01:26.058Z,11.40
2022-12-29T13:03:55.865Z,11.40
2022-12-29T13:06:28.505Z,11.40
2022-12-29T13:09:41.905Z,11.40
2022-12-29T13:12:19.352Z,11.40
2022-12-29T13:14:46.077Z,11.40
2022-12-29T13:17:34.053Z,11.50
2022-12-29T13:20:13.088Z,11.50
2022-12-29T13:23:03.447Z,11.50
2022-12-29T13:25:48.498Z,11.50
2022-12-29T13:28:21.981Z,11.50
2022-12-29T13:31:00.427Z,11.40
2022-12-29T13:34:01.441Z,11.50
2022-12-29T13:36:46.637Z,11.50
2022-12-29T13:39:34.195Z,11.50
2022-12-29T13:42:03.595Z,11.50
2022-12-29T13:44:36.810Z,11.50
2022-12-29T13:47:26.133Z,11.50
2022-12-29T13:49:54.269Z,11.60
2022-12-29T13:52:41.673Z,11.50
2022-12-29T13:55:27.579Z,11.50
2022-12-29T13:58:06.213Z,11.50
2022-12-29T14:01:09.693Z,11.60
2022-12-29T14:03:51.226Z,11.70
2022-12-29T14:06:24.192Z,11.70
2022-12-29T14:08:58.677Z,11.70
2022-12-29T14:11:36.153Z,11.80
2022-12-29T14:14:19.448Z,11.80
2022-12-29T14:16:46.876Z,11.80
2022-12-29T14:19:13.636Z,11.80
2022-12-29T14:21:41.289Z,11.80
2022-12-29T14:24:29.463Z,11.80
2022-12-29T14:26:56.205Z,11.80
2022-12-29T14:29:22.903Z,11.80
2022-12-29T14:31:49.771Z,11.80
2022-12-29T14:34:17.420Z,11.80
2022-12-29T14:37:04.509Z,11.80
2022-12-29T14:39:36.582Z,11.80
2022-12-29T14:42:11.776Z,11.80
2022-12-29T14:45:25.302Z,11.80
2022-12-29T14:47:53.711Z,11.80
2022-12-29T14:50:24.990Z,11.80
2022-12-29T14:53:06.174Z,11.80
2022-12-29T14:55:50.809Z,11.80
2022-12-29T14:58:47.403Z,11.70
2022-12-29T15:01:50.937Z,11.70
2022-12-29T15:04:23.982Z,11.60
2022-12-29T15:06:51.649Z,11.50
2022-12-29T15:09:43.817Z,11.50
2022-12-29T15:12:29.179Z,11.50
2022-12-29T15:14:59.072Z,11.40
2022-12-29T15:17:30.171Z,11.40
2022-12-29T15:19:59.228Z,11.30
2022-12-29T15:22:26.832Z,11.30
2022-12-29T15:24:55.555Z,11.30
2022-12-29T15:27:27.393Z,11.20
2022-12-29T15:30:02.937Z,11.20
2022-12-29T15:32:40.617Z,11.20
2022-12-29T15:35:23.452Z,11.20
2022-12-29T15:37:50.351Z,11.10
2022-12-29T15:40:30.738Z,11.10
2022-12-29T15:43:24.675Z,11.10
2022-12-29T15:45:52.682Z,11.10
2022-12-29T15:48:22.529Z,11.10
2022-12-29T15:50:49.975Z,11.10
2022-12-29T15:53:29.397Z,11.10
2022-12-29T15:56:09.540Z,11.10
2022-12-29T15:58:51.468Z,11.10
2022-12-29T16:01:31.616Z,11.10
2022-12-29T16:04:09.356Z,11.10
2022-12-29T16:06:37.015Z,11.10
2022-12-29T16:09:16.151Z,11.10
2022-12-29T16:11:52.886Z,11.10
2022-12-29T16:14:33.341Z,11.10
2022-12-29T16:17:04.863Z,11.10
2022-12-29T16:19:38.202Z,11.10
2022-12-29T16:22:18.447Z,11.00
2022-12-29T16:24:46.544Z,11.00
2022-12-29T16:27:33.299Z,11.00
2022-12-29T16:30:06.815Z,10.90
2022-12-29T16:32:34.546Z,10.80
2022-12-29T16:35:04.372Z,10.70
2022-12-29T16:37:34.310Z,10.70
2022-12-29T16:40:19.116Z,10.60
2022-12-29T16:42:52.152Z,10.40
2022-12-29T16:45:22.511Z,10.30
2022-12-29T16:48:07.522Z,10.10
2022-12-29T16:50:36.637Z,9.90
2022-12-29T16:53:05.275Z,9.80
2022-12-29T16:55:33.000Z,9.70
2022-12-29T16:58:00.931Z,9.70
2022-12-29T17:00:35.350Z,9.70
2022-12-29T17:03:03.000Z,9.60
2022-12-29T17:05:29.839Z,9.70
2022-12-29T17:08:03.345Z,9.60
2022-12-29T17:10:48.774Z,9.60
2022-12-29T17:13:15.597Z,9.50
2022-12-29T17:15:42.440Z,9.50
2022-12-29T17:18:13.948Z,9.50
2022-12-29T17:20:41.249Z,9.50
2022-12-29T17:23:19.900Z,9.50
2022-12-29T17:25:49.553Z,9.50
2022-12-29T17:28:25.521Z,9.50
2022-12-29T17:30:55.369Z,9.50
2022-12-29T17:33:22.330Z,9.50
2022-12-29T17:35:54.932Z,9.50
2022-12-29T17:38:28.631Z,9.50
2022-12-29T17:40:55.562Z,9.50
2022-12-29T17:43:22.456Z,9.40
2022-12-29T17:45:55.340Z,9.40
2022-12-29T17:48:22.856Z,9.40
2022-12-29T17:50:52.569Z,9.30
2022-12-29T17:53:23.568Z,9.30
2022-12-29T17:55:50.635Z,9.30
2022-12-29T17:58:43.947Z,9.20
2022-12-29T18:01:11.525Z,9.20
2022-12-29T18:03:41.004Z,9.20
2022-12-29T18:06:11.100Z,9.10
2022-12-29T18:08:39.536Z,9.10
2022-12-29T18:11:24.829Z,9.10
2022-12-29T18:13:53.161Z,9.10
2022-12-29T18:16:23.337Z,9.10
2022-12-29T18:18:50.355Z,9.10
2022-12-29T18:21:19.597Z,9.10
2022-12-29T18:23:47.687Z,9.10
2022-12-29T18:26:28.667Z,9.10
2022-12-29T18:28:57.492Z,9.10
2022-12-29T18:31:29.996Z,9.20
2022-12-29T18:33:58.573Z,9.20
2022-12-29T18:36:26.396Z,9.20
2022-12-29T18:38:54.692Z,9.20
2022-12-29T18:41:26.511Z,9.20
2022-12-29T18:43:53.414Z,9.20
2022-12-29T18:46:23.178Z,9.20
2022-12-29T18:48:50.732Z,9.20
2022-12-29T18:51:23.519Z,9.20
2022-12-29T18:53:53.774Z,9.20
2022-12-29T18:56:23.574Z,9.20
2022-12-29T18:58:51.048Z,9.10
2022-12-29T19:01:23.657Z,9.10
2022-12-29T19:03:50.940Z,9.20
2022-12-29T19:06:17.638Z,9.20
2022-12-29T19:08:45.262Z,9.20
2022-12-29T19:11:11.993Z,9.20
2022-12-29T19:13:40.334Z,9.30
2022-12-29T19:16:11.526Z,9.20
2022-12-29T19:18:52.145Z,9.20
2022-12-29T19:21:25.235Z,9.20
2022-12-29T19:23:53.052Z,9.30
2022-12-29T19:26:36.075Z,9.30
2022-12-29T19:29:03.599Z,9.30
2022-12-29T19:31:30.414Z,9.30
2022-12-29T19:33:57.228Z,9.30
2022-12-29T19:36:23.988Z,9.30
2022-12-29T19:38:50.740Z,9.30
2022-12-29T19:41:17.546Z,9.30
2022-12-29T19:43:44.349Z,9.30
2022-12-29T19:46:15.019Z,9.30
2022-12-29T19:48:41.898Z,9.30
2022-12-29T19:51:12.623Z,9.30
2022-12-29T19:53:39.634Z,9.30
2022-12-29T19:56:08.431Z,9.30
2022-12-29T19:58:36.850Z,9.30
2022-12-29T20:01:13.245Z,9.30
2022-12-29T20:03:40.686Z,9.30
2022-12-29T20:06:09.846Z,9.30
2022-12-29T20:08:38.216Z,9.30
2022-12-29T20:11:07.568Z,9.30
2022-12-29T20:13:35.540Z,9.40
2022-12-29T20:16:07.757Z,9.30
2022-12-29T20:18:35.864Z,9.30
2022-12-29T20:21:04.824Z,9.20
2022-12-29T20:23:33.176Z,9.20
2022-12-29T20:26:00.677Z,9.20
2022-12-29T20:28:28.611Z,9.20
2022-12-29T20:31:01.072Z,9.20
2022-12-29T20:33:28.642Z,9.20
2022-12-29T20:36:03.345Z,9.30
2022-12-29T20:38:30.050Z,9.30
2022-12-29T20:40:56.782Z,9.20
2022-12-29T20:43:23.477Z,9.20
2022-12-29T20:45:50.237Z,9.20
2022-12-29T20:48:17.177Z,9.20
2022-12-29T20:50:44.110Z,9.20
2022-12-29T20:53:11.717Z,9.20
2022-12-29T20:55:41.301Z,9.20
2022-12-29T20:58:24.662Z,9.20
2022-12-29T21:00:52.114Z,9.20
2022-12-29T21:03:19.579Z,9.20
2022-12-29T21:05:46.607Z,9.10
2022-12-29T21:08:13.456Z,9.10
2022-12-29T21:10:40.161Z,9.10
2022-12-29T21:13:06.855Z,9.10
2022-12-29T21:15:33.684Z,9.10
2022-12-29T21:18:00.456Z,9.10
2022-12-29T21:20:31.645Z,9.10
2022-12-29T21:23:00.162Z,9.00
2022-12-29T21:25:36.759Z,9.00
2022-12-29T21:28:08.320Z,9.00
2022-12-29T21:30:35.846Z,9.00
2022-12-29T21:33:02.754Z,9.00
2022-12-29T21:35:29.584Z,9.00
2022-12-29T21:37:56.738Z,9.00
2022-12-29T21:40:23.598Z,9.00
2022-12-29T21:42:50.523Z,9.00
2022-12-29T21:45:26.321Z,9.00
2022-12-29T21:48:23.652Z,9.00
2022-12-29T21:51:14.863Z,9.00
2022-12-29T21:53:44.328Z,9.10
2022-12-29T21:56:18.413Z,9.00
2022-12-29T21:59:06.568Z,9.00
2022-12-29T22:01:54.675Z,9.00
2022-12-29T22:04:42.849Z,9.00
2022-12-29T22:07:29.974Z,9.00
2022-12-29T22:10:15.287Z,9.00
2022-12-29T22:13:03.519Z,9.00
2022-12-29T22:15:35.923Z,9.00
2022-12-29T22:18:03.648Z,9.00
2022-12-29T22:20:33.282Z,9.00
2022-12-29T22:23:00.081Z,9.00
2022-12-29T22:25:26.852Z,9.00
2022-12-29T22:27:58.907Z,9.00
2022-12-29T22:30:28.154Z,9.00
2022-12-29T22:32:56.605Z,9.00
2022-12-29T22:35:23.660Z,9.00
2022-12-29T22:37:50.576Z,9.00
2022-12-29T22:40:17.460Z,9.00
2022-12-29T22:42:44.217Z,9.10
2022-12-29T22:45:11.403Z,9.10
2022-12-29T22:47:38.215Z,9.00
2022-12-29T22:50:05.417Z,9.00
2022-12-29T22:52:32.268Z,9.00
2022-12-29T22:55:04.614Z,9.10
2022-12-29T22:57:33.439Z,9.10
2022-12-29T23:00:00.225Z,9.00
2022-12-29T23:02:27.476Z,9.10
2022-12-29T23:05:04.087Z,9.10
2022-12-29T23:07:32.506Z,9.10
2022-12-29T23:09:59.307Z,9.10
2022-12-29T23:12:28.546Z,9.10
2022-12-29T23:14:55.288Z,9.10
2022-12-29T23:17:22.060Z,9.10
2022-12-29T23:19:48.783Z,9.10
2022-12-29T23:22:15.484Z,9.10
2022-12-29T23:24:42.208Z,9.10
2022-12-29T23:27:08.955Z,9.10
2022-12-29T23:29:35.885Z,9.10
2022-12-29T23:32:02.587Z,9.10
2022-12-29T23:34:29.326Z,9.10
2022-12-29T23:36:56.115Z,9.10
2022-12-29T23:39:24.454Z,9.00
2022-12-29T23:41:51.929Z,9.00
2022-12-29T23:44:18.717Z,9.00
2022-12-29T23:46:45.538Z,9.00
2022-12-29T23:49:12.406Z,9.00
2022-12-29T23:51:39.261Z,9.00
2022-12-29T23:54:06.323Z,9.00
2022-12-29T23:56:33.165Z,9.00
2022-12-29T23:59:00.051Z,9.00
